sensor_id;sensor_type;location;lat;lon;timestamp;pressure;altitude;pressure_sealevel;temperature;humidity
49825;BME280;35714;55.708;37.478;2023-02-20T00:00:30;97270.88;;;-1.32;56.56
49825;BME280;35714;55.708;37.478;2023-02-20T00:02:56;97270.88;;;-1.32;56.48
49825;BME280;35714;55.708;37.478;2023-02-20T00:05:23;97268.00;;;-1.31;56.62
49825;BME280;35714;55.708;37.478;2023-02-20T00:07:49;97264.34;;;-1.30;56.26
49825;BME280;35714;55.708;37.478;2023-02-20T00:10:15;97267.19;;;-1.31;55.94
49825;BME280;35714;55.708;37.478;2023-02-20T00:12:41;97268.03;;;-1.37;55.89
49825;BME280;35714;55.708;37.478;2023-02-20T00:15:07;97270.72;;;-1.37;56.55
49825;BME280;35714;55.708;37.478;2023-02-20T00:17:34;97264.78;;;-1.39;56.29
49825;BME280;35714;55.708;37.478;2023-02-20T00:20:00;97263.94;;;-1.33;56.13
49825;BME280;35714;55.708;37.478;2023-02-20T00:22:28;97269.44;;;-1.28;56.19
49825;BME280;35714;55.708;37.478;2023-02-20T00:24:54;97268.00;;;-1.24;56.10
49825;BME280;35714;55.708;37.478;2023-02-20T00:27:19;97266.13;;;-1.23;55.93
49825;BME280;35714;55.708;37.478;2023-02-20T00:29:45;97257.56;;;-1.25;55.71
49825;BME280;35714;55.708;37.478;2023-02-20T00:32:14;97258.22;;;-1.30;55.64
49825;BME280;35714;55.708;37.478;2023-02-20T00:34:39;97267.19;;;-1.31;55.32
49825;BME280;35714;55.708;37.478;2023-02-20T00:37:05;97261.53;;;-1.41;55.70
49825;BME280;35714;55.708;37.478;2023-02-20T00:39:31;97261.97;;;-1.44;55.43
49825;BME280;35714;55.708;37.478;2023-02-20T00:41:57;97260.75;;;-1.49;55.60
49825;BME280;35714;55.708;37.478;2023-02-20T00:44:24;97262.38;;;-1.48;55.77
49825;BME280;35714;55.708;37.478;2023-02-20T00:46:49;97259.91;;;-1.42;56.05
49825;BME280;35714;55.708;37.478;2023-02-20T00:49:15;97261.09;;;-1.38;55.85
49825;BME280;35714;55.708;37.478;2023-02-20T00:51:44;97252.09;;;-1.37;55.81
49825;BME280;35714;55.708;37.478;2023-02-20T00:54:10;97257.00;;;-1.34;55.77
49825;BME280;35714;55.708;37.478;2023-02-20T00:56:36;97250.03;;;-1.29;55.65
49825;BME280;35714;55.708;37.478;2023-02-20T00:59:02;97262.25;;;-1.28;55.74
49825;BME280;35714;55.708;37.478;2023-02-20T01:01:27;97255.72;;;-1.25;55.62
49825;BME280;35714;55.708;37.478;2023-02-20T01:03:53;97249.81;;;-1.27;55.49
49825;BME280;35714;55.708;37.478;2023-02-20T01:06:19;97252.03;;;-1.24;55.54
49825;BME280;35714;55.708;37.478;2023-02-20T01:08:44;97253.66;;;-1.23;55.50
49825;BME280;35714;55.708;37.478;2023-02-20T01:11:10;97250.78;;;-1.21;55.20
49825;BME280;35714;55.708;37.478;2023-02-20T01:13:36;97258.53;;;-1.20;55.44
49825;BME280;35714;55.708;37.478;2023-02-20T01:16:01;97249.97;;;-1.22;55.38
49825;BME280;35714;55.708;37.478;2023-02-20T01:18:27;97237.69;;;-1.23;55.46
49825;BME280;35714;55.708;37.478;2023-02-20T01:20:53;97256.94;;;-1.21;55.08
49825;BME280;35714;55.708;37.478;2023-02-20T01:23:20;97252.06;;;-1.31;55.04
49825;BME280;35714;55.708;37.478;2023-02-20T01:25:46;97258.00;;;-1.29;55.59
49825;BME280;35714;55.708;37.478;2023-02-20T01:28:12;97251.72;;;-1.41;55.21
49825;BME280;35714;55.708;37.478;2023-02-20T01:30:38;97263.53;;;-1.37;55.22
49825;BME280;35714;55.708;37.478;2023-02-20T01:33:03;97266.84;;;-1.41;55.31
49825;BME280;35714;55.708;37.478;2023-02-20T01:35:29;97257.06;;;-1.48;55.21
49825;BME280;35714;55.708;37.478;2023-02-20T01:37:57;97257.06;;;-1.48;55.31
49825;BME280;35714;55.708;37.478;2023-02-20T01:40:24;97267.28;;;-1.51;55.06
49825;BME280;35714;55.708;37.478;2023-02-20T01:42:50;97261.59;;;-1.55;55.37
49825;BME280;35714;55.708;37.478;2023-02-20T01:45:27;97265.69;;;-1.59;55.16
49825;BME280;35714;55.708;37.478;2023-02-20T01:47:55;97268.16;;;-1.64;55.03
49825;BME280;35714;55.708;37.478;2023-02-20T01:50:27;97267.75;;;-1.61;55.23
49825;BME280;35714;55.708;37.478;2023-02-20T01:52:59;97262.44;;;-1.61;55.24
49825;BME280;35714;55.708;37.478;2023-02-20T01:55:30;97260.19;;;-1.64;55.20
49825;BME280;35714;55.708;37.478;2023-02-20T01:58:22;97260.78;;;-1.55;55.21
49825;BME280;35714;55.708;37.478;2023-02-20T02:00:49;97258.53;;;-1.65;54.96
49825;BME280;35714;55.708;37.478;2023-02-20T02:03:21;97271.41;;;-1.62;54.92
49825;BME280;35714;55.708;37.478;2023-02-20T02:05:53;97273.47;;;-1.64;55.13
49825;BME280;35714;55.708;37.478;2023-02-20T02:08:21;97273.84;;;-1.60;55.34
49825;BME280;35714;55.708;37.478;2023-02-20T02:10:53;97271.00;;;-1.59;55.14
49825;BME280;35714;55.708;37.478;2023-02-20T02:13:21;97272.22;;;-1.55;55.81
49825;BME280;35714;55.708;37.478;2023-02-20T02:15:51;97274.69;;;-1.60;54.87
49825;BME280;35714;55.708;37.478;2023-02-20T02:38:22;97296.06;;;-2.07;54.85
49825;BME280;35714;55.708;37.478;2023-02-20T02:40:56;97300.97;;;-2.24;55.14
49825;BME280;35714;55.708;37.478;2023-02-20T02:43:48;97298.75;;;-2.33;54.92
49825;BME280;35714;55.708;37.478;2023-02-20T02:49:05;97306.47;;;-2.45;55.62
49825;BME280;35714;55.708;37.478;2023-02-20T02:51:36;97303.41;;;-2.42;55.65
49825;BME280;35714;55.708;37.478;2023-02-20T02:54:11;97300.16;;;-2.38;55.43
49825;BME280;35714;55.708;37.478;2023-02-20T02:56:39;97293.63;;;-2.35;55.60
49825;BME280;35714;55.708;37.478;2023-02-20T02:59:08;97294.03;;;-2.38;55.47
49825;BME280;35714;55.708;37.478;2023-02-20T03:01:42;97297.72;;;-2.39;55.55
49825;BME280;35714;55.708;37.478;2023-02-20T03:04:12;97293.22;;;-2.45;55.26
49825;BME280;35714;55.708;37.478;2023-02-20T03:06:43;97292.81;;;-2.56;55.21
49825;BME280;35714;55.708;37.478;2023-02-20T03:09:14;97285.47;;;-2.60;55.55
49825;BME280;35714;55.708;37.478;2023-02-20T03:11:42;97297.53;;;-2.58;55.38
49825;BME280;35714;55.708;37.478;2023-02-20T03:14:17;97295.28;;;-2.61;55.42
49825;BME280;35714;55.708;37.478;2023-02-20T03:19:45;97294.44;;;-2.68;55.54
49825;BME280;35714;55.708;37.478;2023-02-20T03:24:50;97295.84;;;-2.92;55.45
49825;BME280;35714;55.708;37.478;2023-02-20T03:29:53;97300.28;;;-3.13;55.93
49825;BME280;35714;55.708;37.478;2023-02-20T03:32:24;97298.44;;;-3.19;56.23
49825;BME280;35714;55.708;37.478;2023-02-20T03:35:09;97299.25;;;-3.18;56.45
49825;BME280;35714;55.708;37.478;2023-02-20T03:37:58;97294.75;;;-3.18;56.45
49825;BME280;35714;55.708;37.478;2023-02-20T03:40:44;97300.91;;;-3.11;56.43
49825;BME280;35714;55.708;37.478;2023-02-20T03:43:30;97309.47;;;-3.02;56.62
49825;BME280;35714;55.708;37.478;2023-02-20T03:46:03;97306.03;;;-2.96;56.55
49825;BME280;35714;55.708;37.478;2023-02-20T03:48:52;97308.72;;;-2.82;56.53
49825;BME280;35714;55.708;37.478;2023-02-20T03:51:20;97313.22;;;-2.76;56.39
49825;BME280;35714;55.708;37.478;2023-02-20T03:54:12;97308.31;;;-2.66;56.09
49825;BME280;35714;55.708;37.478;2023-02-20T03:56:41;97313.84;;;-2.61;56.09
49825;BME280;35714;55.708;37.478;2023-02-20T03:59:15;97311.59;;;-2.57;56.01
49825;BME280;35714;55.708;37.478;2023-02-20T04:01:45;97311.19;;;-2.61;55.91
49825;BME280;35714;55.708;37.478;2023-02-20T04:04:15;97311.59;;;-2.64;56.05
49825;BME280;35714;55.708;37.478;2023-02-20T04:06:46;97309.94;;;-2.65;56.27
49825;BME280;35714;55.708;37.478;2023-02-20T04:09:18;97300.56;;;-2.67;55.98
49825;BME280;35714;55.708;37.478;2023-02-20T04:11:48;97301.59;;;-2.62;56.21
49825;BME280;35714;55.708;37.478;2023-02-20T04:14:18;97304.44;;;-2.63;55.99
49825;BME280;35714;55.708;37.478;2023-02-20T04:16:49;97312.41;;;-2.63;56.05
49825;BME280;35714;55.708;37.478;2023-02-20T04:19:15;97318.31;;;-2.61;55.81
49825;BME280;35714;55.708;37.478;2023-02-20T04:21:50;97310.97;;;-2.66;55.66
49825;BME280;35714;55.708;37.478;2023-02-20T04:24:22;97316.88;;;-2.70;56.12
49825;BME280;35714;55.708;37.478;2023-02-20T04:26:49;97316.06;;;-2.71;56.07
49825;BME280;35714;55.708;37.478;2023-02-20T04:29:16;97322.19;;;-2.70;56.09
49825;BME280;35714;55.708;37.478;2023-02-20T04:31:42;97312.59;;;-2.78;56.06
49825;BME280;35714;55.708;37.478;2023-02-20T04:34:08;97314.00;;;-2.82;55.84
49825;BME280;35714;55.708;37.478;2023-02-20T04:36:35;97316.88;;;-2.91;55.95
49825;BME280;35714;55.708;37.478;2023-02-20T04:39:03;97312.56;;;-2.92;56.20
49825;BME280;35714;55.708;37.478;2023-02-20T04:41:30;97315.22;;;-2.85;56.13
49825;BME280;35714;55.708;37.478;2023-02-20T04:43:57;97319.94;;;-2.80;56.13
49825;BME280;35714;55.708;37.478;2023-02-20T04:46:43;97322.19;;;-2.77;56.05
49825;BME280;35714;55.708;37.478;2023-02-20T04:49:09;97320.97;;;-2.81;56.01
49825;BME280;35714;55.708;37.478;2023-02-20T04:51:36;97328.09;;;-2.75;55.92
49825;BME280;35714;55.708;37.478;2023-02-20T04:54:02;97323.00;;;-2.70;55.90
49825;BME280;35714;55.708;37.478;2023-02-20T04:56:27;97327.13;;;-2.61;56.28
49825;BME280;35714;55.708;37.478;2023-02-20T04:58:54;97337.53;;;-2.52;55.82
49825;BME280;35714;55.708;37.478;2023-02-20T05:01:21;97322.59;;;-2.54;55.93
49825;BME280;35714;55.708;37.478;2023-02-20T05:03:47;97333.25;;;-2.40;55.76
49825;BME280;35714;55.708;37.478;2023-02-20T05:06:12;97352.41;;;-2.31;55.54
49825;BME280;35714;55.708;37.478;2023-02-20T05:08:38;97342.84;;;-2.26;55.60
49825;BME280;35714;55.708;37.478;2023-02-20T05:11:04;97340.97;;;-2.19;55.18
49825;BME280;35714;55.708;37.478;2023-02-20T05:13:30;97329.56;;;-2.19;54.96
49825;BME280;35714;55.708;37.478;2023-02-20T05:15:55;97345.09;;;-2.23;54.65
49825;BME280;35714;55.708;37.478;2023-02-20T05:18:27;97344.69;;;-2.26;54.75
49825;BME280;35714;55.708;37.478;2023-02-20T05:20:54;97339.38;;;-2.26;54.62
49825;BME280;35714;55.708;37.478;2023-02-20T05:23:38;97329.16;;;-2.29;54.33
49825;BME280;35714;55.708;37.478;2023-02-20T05:26:08;97333.44;;;-2.22;54.20
49825;BME280;35714;55.708;37.478;2023-02-20T05:28:35;97344.69;;;-2.26;54.49
49825;BME280;35714;55.708;37.478;2023-02-20T05:31:00;97336.69;;;-2.33;54.43
49825;BME280;35714;55.708;37.478;2023-02-20T05:33:26;97330.38;;;-2.39;54.54
49825;BME280;35714;55.708;37.478;2023-02-20T05:35:52;97343.44;;;-2.24;54.55
49825;BME280;35714;55.708;37.478;2023-02-20T05:38:18;97347.53;;;-2.14;54.49
49825;BME280;35714;55.708;37.478;2023-02-20T05:40:44;97338.16;;;-2.10;54.21
49825;BME280;35714;55.708;37.478;2023-02-20T05:43:09;97344.25;;;-2.03;54.01
49825;BME280;35714;55.708;37.478;2023-02-20T05:45:35;97342.22;;;-2.01;53.87
49825;BME280;35714;55.708;37.478;2023-02-20T05:48:01;97345.47;;;-1.99;53.79
49825;BME280;35714;55.708;37.478;2023-02-20T05:50:26;97336.91;;;-2.01;53.53
49825;BME280;35714;55.708;37.478;2023-02-20T05:52:52;97343.22;;;-2.02;53.72
49825;BME280;35714;55.708;37.478;2023-02-20T05:55:18;97351.19;;;-2.02;53.58
49825;BME280;35714;55.708;37.478;2023-02-20T05:57:43;97345.69;;;-2.07;53.26
49825;BME280;35714;55.708;37.478;2023-02-20T06:00:09;97351.00;;;-2.07;53.47
49825;BME280;35714;55.708;37.478;2023-02-20T06:02:38;97354.28;;;-2.05;53.48
49825;BME280;35714;55.708;37.478;2023-02-20T06:05:04;97358.34;;;-2.09;53.15
49825;BME280;35714;55.708;37.478;2023-02-20T06:07:32;97361.41;;;-2.12;53.29
49825;BME280;35714;55.708;37.478;2023-02-20T06:09:58;97363.66;;;-2.09;53.49
49825;BME280;35714;55.708;37.478;2023-02-20T06:12:24;97367.75;;;-2.00;53.71
49825;BME280;35714;55.708;37.478;2023-02-20T06:14:49;97362.22;;;-1.92;53.34
49825;BME280;35714;55.708;37.478;2023-02-20T06:17:15;97371.19;;;-1.86;53.06
49825;BME280;35714;55.708;37.478;2023-02-20T06:19:41;97365.50;;;-1.90;52.71
49825;BME280;35714;55.708;37.478;2023-02-20T06:22:06;97377.13;;;-1.91;52.96
49825;BME280;35714;55.708;37.478;2023-02-20T06:24:32;97375.28;;;-1.84;53.10
49825;BME280;35714;55.708;37.478;2023-02-20T06:26:58;97376.91;;;-1.83;52.58
49825;BME280;35714;55.708;37.478;2023-02-20T06:29:23;97385.09;;;-1.77;52.56
49825;BME280;35714;55.708;37.478;2023-02-20T06:31:49;97381.63;;;-1.71;52.71
49825;BME280;35714;55.708;37.478;2023-02-20T06:34:16;97379.34;;;-1.68;52.78
49825;BME280;35714;55.708;37.478;2023-02-20T06:36:41;97382.19;;;-1.56;52.53
49825;BME280;35714;55.708;37.478;2023-02-20T06:39:09;97375.63;;;-1.47;52.40
49825;BME280;35714;55.708;37.478;2023-02-20T06:41:35;97378.47;;;-1.35;52.26
49825;BME280;35714;55.708;37.478;2023-02-20T06:44:01;97371.47;;;-1.29;51.89
49825;BME280;35714;55.708;37.478;2023-02-20T06:46:27;97376.38;;;-1.26;51.92
49825;BME280;35714;55.708;37.478;2023-02-20T06:48:54;97387.44;;;-1.22;51.60
49825;BME280;35714;55.708;37.478;2023-02-20T06:51:24;97382.72;;;-1.20;51.53
49825;BME280;35714;55.708;37.478;2023-02-20T06:53:50;97385.75;;;-1.17;51.71
49825;BME280;35714;55.708;37.478;2023-02-20T06:56:18;97367.16;;;-1.17;51.47
49825;BME280;35714;55.708;37.478;2023-02-20T06:58:45;97386.16;;;-1.06;51.52
49825;BME280;35714;55.708;37.478;2023-02-20T07:01:12;97384.69;;;-1.02;51.39
49825;BME280;35714;55.708;37.478;2023-02-20T07:03:37;97383.25;;;-0.98;51.49
49825;BME280;35714;55.708;37.478;2023-02-20T07:06:03;97386.91;;;-0.93;50.89
49825;BME280;35714;55.708;37.478;2023-02-20T07:08:29;97388.31;;;-0.90;51.02
49825;BME280;35714;55.708;37.478;2023-02-20T07:10:54;97380.91;;;-0.81;51.07
49825;BME280;35714;55.708;37.478;2023-02-20T07:13:21;97384.31;;;-0.67;50.99
49825;BME280;35714;55.708;37.478;2023-02-20T07:15:48;97374.00;;;-0.57;50.24
49825;BME280;35714;55.708;37.478;2023-02-20T07:18:14;97380.97;;;-0.56;50.27
49825;BME280;35714;55.708;37.478;2023-02-20T07:20:42;97390.34;;;-0.47;49.91
49825;BME280;35714;55.708;37.478;2023-02-20T07:23:08;97398.94;;;-0.45;49.66
49825;BME280;35714;55.708;37.478;2023-02-20T07:25:33;97399.78;;;-0.51;49.33
49825;BME280;35714;55.708;37.478;2023-02-20T07:27:59;97394.88;;;-0.54;49.78
49825;BME280;35714;55.708;37.478;2023-02-20T07:30:24;97395.25;;;-0.44;49.70
49825;BME280;35714;55.708;37.478;2023-02-20T07:32:51;97396.84;;;-0.36;49.78
49825;BME280;35714;55.708;37.478;2023-02-20T07:35:16;97394.56;;;-0.32;49.26
49825;BME280;35714;55.708;37.478;2023-02-20T07:37:42;97394.75;;;-0.34;49.42
49825;BME280;35714;55.708;37.478;2023-02-20T07:40:08;97396.63;;;-0.34;49.32
49825;BME280;35714;55.708;37.478;2023-02-20T07:42:34;97394.81;;;-0.41;49.08
49825;BME280;35714;55.708;37.478;2023-02-20T07:45:17;97404.25;;;-0.45;49.39
49825;BME280;35714;55.708;37.478;2023-02-20T07:47:43;97404.25;;;-0.45;49.73
49825;BME280;35714;55.708;37.478;2023-02-20T07:50:09;97401.31;;;-0.37;49.65
49825;BME280;35714;55.708;37.478;2023-02-20T07:52:35;97408.63;;;-0.25;49.42
49825;BME280;35714;55.708;37.478;2023-02-20T07:55:00;97408.19;;;-0.22;49.33
49825;BME280;35714;55.708;37.478;2023-02-20T07:57:33;97406.91;;;-0.13;49.09
49825;BME280;35714;55.708;37.478;2023-02-20T07:59:59;97421.16;;;-0.01;49.16
49825;BME280;35714;55.708;37.478;2023-02-20T08:02:24;97422.69;;;0.14;49.04
49825;BME280;35714;55.708;37.478;2023-02-20T08:04:50;97422.59;;;0.27;48.38
49825;BME280;35714;55.708;37.478;2023-02-20T08:07:16;97421.94;;;0.32;48.32
49825;BME280;35714;55.708;37.478;2023-02-20T08:09:41;97421.28;;;0.37;48.37
49825;BME280;35714;55.708;37.478;2023-02-20T08:12:07;97398.00;;;0.25;48.29
49825;BME280;35714;55.708;37.478;2023-02-20T08:14:32;97425.97;;;0.60;47.98
49825;BME280;35714;55.708;37.478;2023-02-20T08:16:58;97432.88;;;0.67;47.87
49825;BME280;35714;55.708;37.478;2023-02-20T08:19:24;97425.78;;;0.80;48.03
49825;BME280;35714;55.708;37.478;2023-02-20T08:21:49;97427.69;;;0.91;47.83
49825;BME280;35714;55.708;37.478;2023-02-20T08:24:15;97426.16;;;1.02;47.06
49825;BME280;35714;55.708;37.478;2023-02-20T08:26:44;97432.53;;;1.01;46.59
49825;BME280;35714;55.708;37.478;2023-02-20T08:29:10;97430.53;;;0.96;46.58
49825;BME280;35714;55.708;37.478;2023-02-20T08:31:36;97430.44;;;1.03;46.83
49825;BME280;35714;55.708;37.478;2023-02-20T08:34:01;97430.28;;;1.16;46.87
49825;BME280;35714;55.708;37.478;2023-02-20T08:36:28;97440.50;;;1.38;46.36
49825;BME280;35714;55.708;37.478;2023-02-20T08:38:53;97445.06;;;1.49;46.01
49825;BME280;35714;55.708;37.478;2023-02-20T08:41:19;97449.91;;;1.59;45.22
49825;BME280;35714;55.708;37.478;2023-02-20T08:43:45;97450.41;;;1.49;45.26
49825;BME280;35714;55.708;37.478;2023-02-20T08:46:11;97445.75;;;1.44;45.36
49825;BME280;35714;55.708;37.478;2023-02-20T08:48:37;97452.06;;;1.50;45.44
49825;BME280;35714;55.708;37.478;2023-02-20T08:51:04;97446.63;;;1.57;45.25
49825;BME280;35714;55.708;37.478;2023-02-20T08:53:30;97440.13;;;1.53;45.04
49825;BME280;35714;55.708;37.478;2023-02-20T08:55:56;97444.28;;;1.49;44.84
49825;BME280;35714;55.708;37.478;2023-02-20T08:58:23;97441.81;;;1.47;44.86
49825;BME280;35714;55.708;37.478;2023-02-20T09:00:49;97442.63;;;1.48;45.08
49825;BME280;35714;55.708;37.478;2023-02-20T09:03:15;97431.88;;;1.54;45.21
49825;BME280;35714;55.708;37.478;2023-02-20T09:05:42;97431.78;;;1.61;45.13
49825;BME280;35714;55.708;37.478;2023-02-20T09:08:08;97426.53;;;1.54;44.24
49825;BME280;35714;55.708;37.478;2023-02-20T09:10:34;97431.47;;;1.39;44.47
49825;BME280;35714;55.708;37.478;2023-02-20T09:13:00;97434.66;;;1.29;44.98
49825;BME280;35714;55.708;37.478;2023-02-20T09:15:26;97429.34;;;1.29;44.93
49825;BME280;35714;55.708;37.478;2023-02-20T09:17:52;97447.03;;;1.42;45.05
49825;BME280;35714;55.708;37.478;2023-02-20T09:20:19;97439.25;;;1.40;44.63
49825;BME280;35714;55.708;37.478;2023-02-20T09:22:46;97446.38;;;1.28;44.79
49825;BME280;35714;55.708;37.478;2023-02-20T09:25:12;97449.13;;;1.21;44.97
49825;BME280;35714;55.708;37.478;2023-02-20T09:27:38;97454.09;;;1.18;45.15
49825;BME280;35714;55.708;37.478;2023-02-20T09:30:05;97460.47;;;1.17;44.93
49825;BME280;35714;55.708;37.478;2023-02-20T09:32:31;97454.53;;;1.15;45.31
49825;BME280;35714;55.708;37.478;2023-02-20T09:34:57;97452.25;;;1.18;45.25
49825;BME280;35714;55.708;37.478;2023-02-20T09:37:23;97457.94;;;1.22;45.25
49825;BME280;35714;55.708;37.478;2023-02-20T09:39:49;97445.50;;;1.16;44.95
49825;BME280;35714;55.708;37.478;2023-02-20T09:45:02;97450.69;;;0.92;44.53
49825;BME280;35714;55.708;37.478;2023-02-20T09:50:35;97442.22;;;0.77;45.29
49825;BME280;35714;55.708;37.478;2023-02-20T09:55:47;97436.16;;;1.06;45.29
49825;BME280;35714;55.708;37.478;2023-02-20T09:58:39;97441.78;;;1.17;44.50
49825;BME280;35714;55.708;37.478;2023-02-20T10:01:06;97446.50;;;1.33;44.65
49825;BME280;35714;55.708;37.478;2023-02-20T10:06:21;97451.97;;;1.57;44.32
49825;BME280;35714;55.708;37.478;2023-02-20T10:08:48;97439.44;;;1.57;44.02
49825;BME280;35714;55.708;37.478;2023-02-20T10:17:44;97435.84;;;1.94;42.71
49825;BME280;35714;55.708;37.478;2023-02-20T10:20:19;97440.63;;;1.92;42.56
49825;BME280;35714;55.708;37.478;2023-02-20T10:25:32;97433.97;;;1.83;43.27
49825;BME280;35714;55.708;37.478;2023-02-20T10:28:06;97435.38;;;1.97;43.09
49825;BME280;35714;55.708;37.478;2023-02-20T10:30:46;97433.78;;;2.08;42.88
49825;BME280;35714;55.708;37.478;2023-02-20T10:33:45;97438.00;;;2.15;42.47
49825;BME280;35714;55.708;37.478;2023-02-20T10:38:47;97448.63;;;1.92;42.13
49825;BME280;35714;55.708;37.478;2023-02-20T10:41:21;97431.97;;;1.78;42.69
49825;BME280;35714;55.708;37.478;2023-02-20T10:43:54;97427.09;;;1.87;42.78
49825;BME280;35714;55.708;37.478;2023-02-20T10:46:43;97439.59;;;2.16;42.43
49825;BME280;35714;55.708;37.478;2023-02-20T10:49:16;97435.81;;;2.36;42.37
49825;BME280;35714;55.708;37.478;2023-02-20T10:51:47;97435.22;;;2.46;41.40
49825;BME280;35714;55.708;37.478;2023-02-20T10:54:49;97436.03;;;2.46;41.24
49825;BME280;35714;55.708;37.478;2023-02-20T10:57:28;97429.31;;;2.44;41.25
49825;BME280;35714;55.708;37.478;2023-02-20T11:00:08;97436.84;;;2.59;41.56
49825;BME280;35714;55.708;37.478;2023-02-20T11:02:40;97434.44;;;2.69;41.72
49825;BME280;35714;55.708;37.478;2023-02-20T11:05:11;97425.22;;;2.88;41.41
49825;BME280;35714;55.708;37.478;2023-02-20T11:07:38;97428.47;;;2.91;41.07
49825;BME280;35714;55.708;37.478;2023-02-20T11:10:04;97429.38;;;2.84;40.85
49825;BME280;35714;55.708;37.478;2023-02-20T11:12:36;97434.41;;;2.81;40.45
49825;BME280;35714;55.708;37.478;2023-02-20T11:15:09;97428.16;;;2.75;40.90
49825;BME280;35714;55.708;37.478;2023-02-20T11:17:38;97427.53;;;2.73;40.77
49825;BME280;35714;55.708;37.478;2023-02-20T11:20:04;97426.50;;;2.62;40.87
49825;BME280;35714;55.708;37.478;2023-02-20T11:22:49;97432.91;;;2.49;41.01
49825;BME280;35714;55.708;37.478;2023-02-20T11:25:20;97429.41;;;2.37;40.84
49825;BME280;35714;55.708;37.478;2023-02-20T11:27:48;97438.09;;;2.32;41.29
49825;BME280;35714;55.708;37.478;2023-02-20T11:32:47;97437.22;;;1.85;41.21
49825;BME280;35714;55.708;37.478;2023-02-20T11:35:24;97430.47;;;1.52;41.35
49825;BME280;35714;55.708;37.478;2023-02-20T11:38:15;97449.06;;;1.28;42.21
49825;BME280;35714;55.708;37.478;2023-02-20T11:40:44;97450.25;;;1.14;42.77
49825;BME280;35714;55.708;37.478;2023-02-20T11:43:21;97453.50;;;0.97;42.63
49825;BME280;35714;55.708;37.478;2023-02-20T11:45:48;97455.25;;;0.85;43.16
49825;BME280;35714;55.708;37.478;2023-02-20T11:48:16;97454.31;;;0.79;43.18
49825;BME280;35714;55.708;37.478;2023-02-20T11:53:24;97456.63;;;0.76;43.13
49825;BME280;35714;55.708;37.478;2023-02-20T11:58:31;97458.53;;;0.43;43.02
49825;BME280;35714;55.708;37.478;2023-02-20T12:00:57;97458.09;;;0.21;43.70
49825;BME280;35714;55.708;37.478;2023-02-20T12:03:31;97451.75;;;0.22;43.91
49825;BME280;35714;55.708;37.478;2023-02-20T12:06:00;97459.03;;;0.33;43.97
49825;BME280;35714;55.708;37.478;2023-02-20T12:08:48;97460.84;;;0.58;43.70
49825;BME280;35714;55.708;37.478;2023-02-20T12:11:24;97459.50;;;0.74;43.99
49825;BME280;35714;55.708;37.478;2023-02-20T12:13:52;97459.97;;;0.64;42.84
49825;BME280;35714;55.708;37.478;2023-02-20T12:16:25;97451.81;;;0.59;43.12
49825;BME280;35714;55.708;37.478;2023-02-20T12:24:29;97456.72;;;0.62;42.87
49825;BME280;35714;55.708;37.478;2023-02-20T12:27:07;97454.41;;;0.47;43.14
49825;BME280;35714;55.708;37.478;2023-02-20T12:29:53;97453.31;;;0.30;42.53
49825;BME280;35714;55.708;37.478;2023-02-20T12:35:30;97465.75;;;-0.21;43.11
49825;BME280;35714;55.708;37.478;2023-02-20T12:46:19;97467.88;;;-0.75;44.20
49825;BME280;35714;55.708;37.478;2023-02-20T13:01:49;97457.38;;;-1.35;45.26
49825;BME280;35714;55.708;37.478;2023-02-20T13:04:28;97456.16;;;-1.33;45.63
49825;BME280;35714;55.708;37.478;2023-02-20T13:07:03;97448.00;;;-1.44;45.44
49825;BME280;35714;55.708;37.478;2023-02-20T13:12:29;97439.00;;;-1.43;45.97
49825;BME280;35714;55.708;37.478;2023-02-20T13:17:48;97455.38;;;-1.60;45.95
49825;BME280;35714;55.708;37.478;2023-02-20T13:20:43;97445.78;;;-1.68;46.25
49825;BME280;35714;55.708;37.478;2023-02-20T13:25:45;97444.34;;;-1.70;46.60
49825;BME280;35714;55.708;37.478;2023-02-20T13:30:37;97454.16;;;-1.77;46.61
49825;BME280;35714;55.708;37.478;2023-02-20T13:33:29;97457.03;;;-1.72;47.16
49825;BME280;35714;55.708;37.478;2023-02-20T13:35:56;97456.22;;;-1.73;47.10
49825;BME280;35714;55.708;37.478;2023-02-20T13:38:26;97452.94;;;-1.68;46.91
49825;BME280;35714;55.708;37.478;2023-02-20T13:56:18;97454.59;;;-1.80;47.00
49825;BME280;35714;55.708;37.478;2023-02-20T13:58:45;97457.81;;;-1.98;47.09
49825;BME280;35714;55.708;37.478;2023-02-20T14:01:11;97470.06;;;-2.11;47.93
49825;BME280;35714;55.708;37.478;2023-02-20T14:03:37;97462.69;;;-2.15;47.88
49825;BME280;35714;55.708;37.478;2023-02-20T14:08:28;97462.31;;;-2.06;47.88
49825;BME280;35714;55.708;37.478;2023-02-20T14:10:54;97455.78;;;-2.16;47.81
49825;BME280;35714;55.708;37.478;2023-02-20T14:13:22;97466.59;;;-2.11;47.78
49825;BME280;35714;55.708;37.478;2023-02-20T14:18:19;97460.69;;;-2.13;47.81
49825;BME280;35714;55.708;37.478;2023-02-20T14:20:47;97474.13;;;-2.22;47.83
49825;BME280;35714;55.708;37.478;2023-02-20T14:23:20;97483.06;;;-2.36;48.01
49825;BME280;35714;55.708;37.478;2023-02-20T14:25:53;97477.13;;;-2.51;48.58
49825;BME280;35714;55.708;37.478;2023-02-20T14:28:19;97478.16;;;-2.52;48.97
49825;BME280;35714;55.708;37.478;2023-02-20T14:30:44;97474.91;;;-2.48;48.78
49825;BME280;35714;55.708;37.478;2023-02-20T14:33:27;97478.16;;;-2.46;48.80
49825;BME280;35714;55.708;37.478;2023-02-20T14:41:11;97478.16;;;-2.52;49.40
49825;BME280;35714;55.708;37.478;2023-02-20T14:43:37;97482.03;;;-2.48;49.42
49825;BME280;35714;55.708;37.478;2023-02-20T14:46:05;97480.41;;;-2.49;49.39
49825;BME280;35714;55.708;37.478;2023-02-20T14:48:34;97481.41;;;-2.50;49.56
49825;BME280;35714;55.708;37.478;2023-02-20T14:51:20;97488.16;;;-2.48;49.84
49825;BME280;35714;55.708;37.478;2023-02-20T14:53:59;97484.66;;;-2.48;49.60
49825;BME280;35714;55.708;37.478;2023-02-20T14:56:25;97485.72;;;-2.49;49.64
49825;BME280;35714;55.708;37.478;2023-02-20T14:58:51;97475.28;;;-2.58;49.68
49825;BME280;35714;55.708;37.478;2023-02-20T15:01:31;97484.91;;;-2.50;49.50
49825;BME280;35714;55.708;37.478;2023-02-20T15:06:35;97483.00;;;-2.63;49.66
49825;BME280;35714;55.708;37.478;2023-02-20T15:09:03;97479.28;;;-2.75;49.58
49825;BME280;35714;55.708;37.478;2023-02-20T15:11:30;97472.13;;;-2.81;49.84
49825;BME280;35714;55.708;37.478;2023-02-20T15:13:56;97480.69;;;-2.79;50.03